Meteo Giornale » Osservazioni meteo Stati Uniti (USA) » Delta
ore: 01:35 - Osservazioni Meteo Delta
Lat. 39° 18' N Lon. 112° 30' W Alt. 1402 metri s.l.m.
12 °C
Nuvoloso
Temp. 24 Ore
12 °C
28 °C
Est
11.1 Km/h
Dew point 11 °C
Umidità 93 %
Visibilità 10 Km
Il sole sorge alle ore 06:58
Il sole tramonta alle ore 20:00
| Data e Ora | Cielo e Fenomeni | T °C | DP °C | Um. % | Pres. hPa | Vis. km | Vento km/h | |
|---|---|---|---|---|---|---|---|---|
| Oggi h: 01:35 | Nuvoloso | 12 | 11 | 93 | 1020 | 10 | E 11.1 | |
| Oggi h: 01:15 | Sereno | 12 | 11 | 93 | 1020 | 10 | E/SE 9.3 | |
| Oggi h: 00:55 | Sereno | 12 | 11 | 93 | 1020 | 10 | E/SE 11.1 | |
| Oggi h: 00:35 | Sereno | 12 | 12 | 100 | 1020 | 10 | E/SE 9.3 | |
| Oggi h: 00:15 | Sereno | 12 | 12 | 100 | 1020 | 10 | SE 11.1 | |
| Ieri h: 23:55 | Sereno | 12 | 12 | 100 | 1020 | 10 | S/SE 18.5 | |
| Ieri h: 23:35 | Sereno | 12 | 12 | 100 | 1020 | 10 | S 13 | |
| Ieri h: 23:15 | Sereno | 13 | 12 | 93 | 1020 | 10 | S/SO 9.3 | |
| Ieri h: 22:55 | Nuvoloso | 13 | 12 | 93 | 1020 | 10 | S/SO 11.1 | |
| Ieri h: 22:35 | Nuvoloso | 14 | 10 | 76 | 1019 | 10 | S 20.3 | |
| Ieri h: 22:15 | Sereno | 13 | 12 | 93 | 1020 | 10 | S 29.6 | |
| Ieri h: 21:55 | Nuvoloso | 13 | 11 | 87 | 1020 | 10 | S 33.3 | |
| Ieri h: 21:35 | Molto Nuvoloso | 13 | 11 | 87 | 1020 | 10 | S/SE 25.9 | |
| Ieri h: 21:15 | Coperto | 13 | 12 | 93 | 1019 | 10 | E/SE 37 | |
| Ieri h: 20:55 | Coperto | 13 | 12 | 93 | 1021 | 10 | S/SE 35.2 | |
| Ieri h: 20:35 | Coperto | 13 | 12 | 93 | 1022 | 10 | S 27.8 | |
| Ieri h: 20:15 | Coperto | 15 | 13 | 87 | 1022 | 11 | S/SO 31.5 | |
| Ieri h: 19:55 | Molto Nuvoloso | 16 | 12 | 77 | 1022 | 10 | SO 16.7 | |
| Ieri h: 19:35 | Nuvoloso | 16 | 12 | 77 | 1021 | 10 | S 13 | |
| Ieri h: 19:15 | Nuvoloso | 16 | 11 | 72 | 1021 | 10 | E/NE 16.7 | |
| Ieri h: 18:55 | Nuvoloso | 16 | 12 | 77 | 1020 | 10 | E/NE 25.9 | |
| Ieri h: 18:35 | Nuvoloso | 15 | 12 | 82 | 1020 | 10 | E/NE 31.5 | |
| Ieri h: 18:15 | Molto Nuvoloso | 15 | 12 | 82 | 1021 | 10 | E 31.5 | |
| Ieri h: 17:55 | Coperto | 14 | 12 | 87 | 1022 | 10 | E 37 | |
| Ieri h: 17:35 | Coperto | 14 | 13 | 93 | 1022 | 11 | E 35.2 | |
| Ieri h: 17:15 | Molto Nuvoloso | 15 | 12 | 82 | 1023 | 6 | E 16.7 | |
| Ieri h: 16:55 | Nuvoloso | 16 | 11 | 72 | 1022 | 11 | E 16.7 | |
| Ieri h: 16:35 | Molto Nuvoloso | 16 | 11 | 72 | 1022 | 11 | N/NE 9.3 | |
| Ieri h: 16:15 | Molto Nuvoloso | 15 | 10 | 72 | 1022 | 10 | N 7.4 | |
| Ieri h: 15:55 | Coperto | 16 | 11 | 72 | 1021 | 11 | O/NO 20.3 | |
| Ieri h: 15:35 | Coperto | 16 | 11 | 72 | 1021 | 10 | O/NO 16.7 | |
| Ieri h: 15:15 | Coperto | 17 | 10 | 63 | 1020 | 10 | S/SO 25.9 | |
| Ieri h: 14:55 | Coperto | 18 | 10 | 59 | 1018 | 11 | O 37 | |
| Ieri h: 14:35 | Coperto | 25 | 8 | 33 | 1017 | 10 | SO 13 | |
| Ieri h: 14:15 | Nuvoloso | 28 | 5 | 23 | 1017 | 10 | S 24 | |
| Ieri h: 13:55 | Sereno | 28 | 5 | 23 | 1017 | 10 | S 14.8 | |
| Ieri h: 13:35 | Sereno | 28 | 5 | 23 | 1017 | 10 | S 13 | |
| Ieri h: 13:15 | Sereno | 28 | 5 | 23 | 1018 | 10 | S 20.3 | |
| Ieri h: 12:55 | Sereno | 28 | 5 | 23 | 1018 | 10 | S 18.5 | |
| Ieri h: 12:35 | Sereno | 27 | 6 | 26 | 1018 | 10 | S 24 | |
| Ieri h: 12:15 | Sereno | 27 | 6 | 26 | 1019 | 10 | S 20.3 | |
| Ieri h: 11:55 | Sereno | 26 | 6 | 27 | 1019 | 10 | S 24 | |
| Ieri h: 11:35 | Sereno | 26 | 6 | 27 | 1019 | 10 | S 27.8 | |
| Ieri h: 11:15 | Sereno | 26 | 5 | 25 | 1019 | 10 | S 24 | |
| Ieri h: 10:55 | Sereno | 26 | 6 | 27 | 1019 | 10 | S 24 | |
| Ieri h: 10:35 | Sereno | 25 | 7 | 31 | 1019 | 10 | S/SE 24 | |
| Ieri h: 10:15 | Sereno | 23 | 7 | 35 | 1019 | 10 | S/SE 16.7 | |
| Ieri h: 09:55 | Sereno | 22 | 8 | 40 | 1019 | 10 | S/SE 14.8 | |
| Ieri h: 09:35 | Sereno | 21 | 9 | 46 | 1019 | 10 | N 0 | |
| Ieri h: 09:15 | Sereno | 20 | 10 | 52 | 1019 | 10 | N 0 | |
| Ieri h: 08:55 | Sereno | 19 | 11 | 59 | 1019 | 10 | N 0 | |
| Ieri h: 08:35 | Nuvoloso | 17 | 11 | 67 | 1019 | 10 | E 16.7 | |
| Ieri h: 08:15 | Nuvoloso | 17 | 11 | 67 | 1019 | 10 | E 13 | |
| Ieri h: 07:55 | Nuvoloso | 17 | 11 | 67 | 1018 | 10 | E 16.7 | |
| Ieri h: 07:35 | Molto Nuvoloso | 16 | 11 | 72 | 1018 | 10 | E 14.8 | |
| Ieri h: 07:15 | Nuvoloso | 16 | 10 | 67 | 1018 | 10 | N 0 | |
| Ieri h: 06:55 | Sereno | 16 | 10 | 67 | 1018 | 10 | E/NE 13 | |
| Ieri h: 06:35 | Sereno | 15 | 10 | 72 | 1018 | 10 | E 14.8 | |
| Ieri h: 06:15 | Nuvoloso | 15 | 11 | 76 | 1018 | 10 | E 16.7 | |
| Ieri h: 05:55 | Nuvoloso | 16 | 11 | 72 | 1018 | 10 | E 14.8 | |
| Ieri h: 05:35 | Sereno | 16 | 11 | 72 | 1018 | 10 | N 0 | |
| Ieri h: 05:15 | Sereno | 16 | 11 | 72 | 1018 | 10 | S/SE 11.1 | |
| Ieri h: 04:55 | Sereno | 16 | 10 | 67 | 1018 | 10 | S/SE 16.7 | |
| Ieri h: 04:35 | Nuvoloso | 16 | 10 | 67 | 1018 | 10 | S 18.5 | |
| Ieri h: 04:15 | Nuvoloso | 16 | 10 | 67 | 1018 | 10 | S 14.8 | |
| Ieri h: 03:55 | Sereno | 15 | 10 | 72 | 1017 | 10 | N 5.5 | |
| Ieri h: 03:35 | Sereno | 15 | 10 | 72 | 1017 | 10 | E 7.4 | |
| Ieri h: 03:15 | Sereno | 16 | 10 | 67 | 1017 | 10 | E 9.3 | |
| Ieri h: 02:55 | Sereno | 17 | 10 | 63 | 1017 | 10 | S/SE 16.7 | |
| Ieri h: 02:35 | Sereno | 17 | 10 | 63 | 1017 | 10 | S/SE 14.8 | |
| Ieri h: 02:15 | Sereno | 16 | 10 | 67 | 1017 | 10 | N 0 | |
| Ieri h: 01:55 | Sereno | 18 | 10 | 59 | 1017 | 10 | E 14.8 | |
| Ieri h: 01:35 | Sereno | 18 | 10 | 59 | 1017 | 10 | E 16.7 | |



